sensor_id;sensor_type;location;lat;lon;timestamp;pressure;altitude;pressure_sealevel;temperature;humidity
56807;BME280;42687;42.524;12.052;2023-05-24T00:01:36;96566.88;;;10.87;97.07
56807;BME280;42687;42.524;12.052;2023-05-24T00:04:02;96566.44;;;10.80;95.85
56807;BME280;42687;42.524;12.052;2023-05-24T00:06:28;96572.31;;;10.83;97.43
56807;BME280;42687;42.524;12.052;2023-05-24T00:08:55;96562.94;;;10.79;97.84
56807;BME280;42687;42.524;12.052;2023-05-24T00:11:21;96559.94;;;10.71;98.46
56807;BME280;42687;42.524;12.052;2023-05-24T00:13:47;96572.25;;;10.71;98.71
56807;BME280;42687;42.524;12.052;2023-05-24T00:16:14;96567.84;;;10.57;98.81
56807;BME280;42687;42.524;12.052;2023-05-24T00:18:40;96567.19;;;10.53;98.37
56807;BME280;42687;42.524;12.052;2023-05-24T00:21:09;96549.81;;;10.50;95.73
56807;BME280;42687;42.524;12.052;2023-05-24T00:23:36;96568.78;;;10.56;95.90
56807;BME280;42687;42.524;12.052;2023-05-24T00:26:06;96558.53;;;10.51;95.64
56807;BME280;42687;42.524;12.052;2023-05-24T00:28:32;96566.44;;;10.51;96.46
56807;BME280;42687;42.524;12.052;2023-05-24T00:30:57;96570.47;;;10.57;97.62
56807;BME280;42687;42.524;12.052;2023-05-24T00:33:23;96504.06;;;10.10;97.19
56807;BME280;42687;42.524;12.052;2023-05-24T00:35:50;96572.06;;;10.45;98.12
56807;BME280;42687;42.524;12.052;2023-05-24T00:38:21;96562.16;;;10.34;98.42
56807;BME280;42687;42.524;12.052;2023-05-24T00:40:47;96572.34;;;10.40;99.58
56807;BME280;42687;42.524;12.052;2023-05-24T00:43:15;96515.28;;;10.12;97.62
56807;BME280;42687;42.524;12.052;2023-05-24T00:45:41;96564.84;;;10.48;98.25
56807;BME280;42687;42.524;12.052;2023-05-24T00:48:07;96557.03;;;10.47;99.23
56807;BME280;42687;42.524;12.052;2023-05-24T00:50:33;96562.56;;;10.42;100.00
56807;BME280;42687;42.524;12.052;2023-05-24T00:53:02;96561.31;;;10.33;100.00
56807;BME280;42687;42.524;12.052;2023-05-24T00:55:29;96565.59;;;10.36;100.00
56807;BME280;42687;42.524;12.052;2023-05-24T00:57:56;96556.22;;;10.30;100.00
56807;BME280;42687;42.524;12.052;2023-05-24T01:00:23;96550.69;;;10.21;99.53
56807;BME280;42687;42.524;12.052;2023-05-24T01:02:49;96550.13;;;10.15;99.62
56807;BME280;42687;42.524;12.052;2023-05-24T01:05:16;96554.81;;;10.25;97.85
56807;BME280;42687;42.524;12.052;2023-05-24T01:07:58;96559.63;;;10.32;96.00
56807;BME280;42687;42.524;12.052;2023-05-24T01:10:50;96559.41;;;10.37;96.17
56807;BME280;42687;42.524;12.052;2023-05-24T01:25:06;96560.03;;;10.41;99.46
56807;BME280;42687;42.524;12.052;2023-05-24T01:27:36;96559.47;;;10.35;100.00
56807;BME280;42687;42.524;12.052;2023-05-24T01:30:04;96558.63;;;10.35;100.00
56807;BME280;42687;42.524;12.052;2023-05-24T01:32:30;96566.50;;;10.35;99.77
56807;BME280;42687;42.524;12.052;2023-05-24T01:34:56;96544.50;;;10.22;99.73
56807;BME280;42687;42.524;12.052;2023-05-24T01:37:22;96551.06;;;10.14;100.00
56807;BME280;42687;42.524;12.052;2023-05-24T01:39:48;96485.72;;;9.79;100.00
56807;BME280;42687;42.524;12.052;2023-05-24T01:45:03;96569.66;;;10.26;99.55
56807;BME280;42687;42.524;12.052;2023-05-24T01:50:38;96558.97;;;10.29;100.00
56807;BME280;42687;42.524;12.052;2023-05-24T01:53:08;96567.19;;;10.39;100.00
56807;BME280;42687;42.524;12.052;2023-05-24T01:55:37;96560.41;;;10.34;100.00
56807;BME280;42687;42.524;12.052;2023-05-24T01:58:05;96562.34;;;10.31;100.00
56807;BME280;42687;42.524;12.052;2023-05-24T02:00:33;96565.25;;;10.26;99.73
56807;BME280;42687;42.524;12.052;2023-05-24T02:03:00;96564.50;;;10.24;99.48
56807;BME280;42687;42.524;12.052;2023-05-24T02:05:27;96570.44;;;10.28;99.85
56807;BME280;42687;42.524;12.052;2023-05-24T02:07:53;96547.25;;;10.20;98.80
56807;BME280;42687;42.524;12.052;2023-05-24T02:10:18;96557.84;;;10.18;98.23
56807;BME280;42687;42.524;12.052;2023-05-24T02:12:44;96560.28;;;10.22;97.80
56807;BME280;42687;42.524;12.052;2023-05-24T02:15:10;96553.59;;;10.30;99.28
56807;BME280;42687;42.524;12.052;2023-05-24T02:17:36;96566.22;;;10.40;98.00
56807;BME280;42687;42.524;12.052;2023-05-24T02:20:02;96551.22;;;10.42;98.34
56807;BME280;42687;42.524;12.052;2023-05-24T02:22:28;96554.41;;;10.47;99.01
56807;BME280;42687;42.524;12.052;2023-05-24T02:24:54;96562.00;;;10.51;98.49
56807;BME280;42687;42.524;12.052;2023-05-24T02:27:19;96550.19;;;10.44;98.69
56807;BME280;42687;42.524;12.052;2023-05-24T02:29:45;96548.19;;;10.33;98.82
56807;BME280;42687;42.524;12.052;2023-05-24T02:32:12;96551.28;;;10.26;98.11
56807;BME280;42687;42.524;12.052;2023-05-24T02:34:39;96554.72;;;10.26;97.90
56807;BME280;42687;42.524;12.052;2023-05-24T02:37:04;96552.19;;;10.25;99.08
56807;BME280;42687;42.524;12.052;2023-05-24T02:39:30;96550.81;;;10.33;98.94
56807;BME280;42687;42.524;12.052;2023-05-24T02:41:56;96544.56;;;10.36;100.00
56807;BME280;42687;42.524;12.052;2023-05-24T02:44:22;96549.63;;;10.39;100.00
56807;BME280;42687;42.524;12.052;2023-05-24T02:46:48;96546.16;;;10.39;100.00
56807;BME280;42687;42.524;12.052;2023-05-24T02:49:14;96548.88;;;10.37;100.00
56807;BME280;42687;42.524;12.052;2023-05-24T02:51:39;96547.31;;;10.33;100.00
56807;BME280;42687;42.524;12.052;2023-05-24T02:54:05;96540.31;;;10.33;100.00
56807;BME280;42687;42.524;12.052;2023-05-24T02:56:31;96549.41;;;10.28;100.00
56807;BME280;42687;42.524;12.052;2023-05-24T02:58:57;96541.03;;;10.21;100.00
56807;BME280;42687;42.524;12.052;2023-05-24T03:01:23;96484.94;;;9.77;100.00
56807;BME280;42687;42.524;12.052;2023-05-24T03:03:48;96546.09;;;10.10;100.00
56807;BME280;42687;42.524;12.052;2023-05-24T03:06:14;96548.72;;;10.10;100.00
56807;BME280;42687;42.524;12.052;2023-05-24T03:08:40;96544.84;;;10.01;100.00
56807;BME280;42687;42.524;12.052;2023-05-24T03:11:06;96540.03;;;9.93;100.00
56807;BME280;42687;42.524;12.052;2023-05-24T03:13:32;96552.00;;;9.99;100.00
56807;BME280;42687;42.524;12.052;2023-05-24T03:15:57;96554.31;;;10.04;100.00
56807;BME280;42687;42.524;12.052;2023-05-24T03:18:23;96561.09;;;10.08;100.00
56807;BME280;42687;42.524;12.052;2023-05-24T03:20:49;96568.03;;;10.09;100.00
56807;BME280;42687;42.524;12.052;2023-05-24T03:23:15;96570.00;;;10.05;100.00
56807;BME280;42687;42.524;12.052;2023-05-24T03:25:41;96554.56;;;9.84;100.00
56807;BME280;42687;42.524;12.052;2023-05-24T03:28:06;96562.47;;;9.84;100.00
56807;BME280;42687;42.524;12.052;2023-05-24T03:30:32;96571.25;;;9.83;100.00
56807;BME280;42687;42.524;12.052;2023-05-24T03:32:58;96573.16;;;9.81;100.00
56807;BME280;42687;42.524;12.052;2023-05-24T03:35:24;96562.91;;;9.77;100.00
56807;BME280;42687;42.524;12.052;2023-05-24T03:37:51;96577.97;;;9.73;100.00
56807;BME280;42687;42.524;12.052;2023-05-24T03:40:17;96570.78;;;9.77;100.00
56807;BME280;42687;42.524;12.052;2023-05-24T03:42:43;96569.47;;;9.84;100.00
56807;BME280;42687;42.524;12.052;2023-05-24T03:45:09;96574.19;;;9.93;100.00
56807;BME280;42687;42.524;12.052;2023-05-24T03:47:35;96566.16;;;9.96;100.00
56807;BME280;42687;42.524;12.052;2023-05-24T03:50:00;96563.63;;;9.95;100.00
56807;BME280;42687;42.524;12.052;2023-05-24T03:52:26;96561.91;;;9.94;100.00
56807;BME280;42687;42.524;12.052;2023-05-24T03:54:52;96565.56;;;9.91;100.00
56807;BME280;42687;42.524;12.052;2023-05-24T03:57:17;96563.03;;;9.90;100.00
56807;BME280;42687;42.524;12.052;2023-05-24T03:59:43;96570.63;;;9.94;100.00
56807;BME280;42687;42.524;12.052;2023-05-24T04:02:09;96572.13;;;9.98;100.00
56807;BME280;42687;42.524;12.052;2023-05-24T04:04:35;96561.00;;;9.95;100.00
56807;BME280;42687;42.524;12.052;2023-05-24T04:07:01;96565.22;;;9.97;100.00
56807;BME280;42687;42.524;12.052;2023-05-24T04:09:27;96577.97;;;10.04;100.00
56807;BME280;42687;42.524;12.052;2023-05-24T04:11:53;96567.31;;;10.07;100.00
56807;BME280;42687;42.524;12.052;2023-05-24T04:14:18;96572.28;;;10.11;100.00
56807;BME280;42687;42.524;12.052;2023-05-24T04:16:44;96571.72;;;10.21;100.00
56807;BME280;42687;42.524;12.052;2023-05-24T04:19:10;96531.81;;;9.99;100.00
56807;BME280;42687;42.524;12.052;2023-05-24T04:21:36;96580.09;;;10.27;100.00
56807;BME280;42687;42.524;12.052;2023-05-24T04:24:03;96575.75;;;10.26;100.00
56807;BME280;42687;42.524;12.052;2023-05-24T04:26:30;96579.88;;;10.30;100.00
56807;BME280;42687;42.524;12.052;2023-05-24T04:28:58;96583.19;;;10.34;100.00
56807;BME280;42687;42.524;12.052;2023-05-24T04:31:26;96586.16;;;10.44;100.00
56807;BME280;42687;42.524;12.052;2023-05-24T04:33:55;96578.28;;;10.44;100.00
56807;BME280;42687;42.524;12.052;2023-05-24T04:36:23;96580.03;;;10.58;100.00
56807;BME280;42687;42.524;12.052;2023-05-24T04:38:49;96574.22;;;10.67;100.00
56807;BME280;42687;42.524;12.052;2023-05-24T04:41:18;96576.38;;;10.75;100.00
56807;BME280;42687;42.524;12.052;2023-05-24T04:43:44;96557.50;;;10.82;100.00
56807;BME280;42687;42.524;12.052;2023-05-24T04:46:10;96576.53;;;11.00;100.00
56807;BME280;42687;42.524;12.052;2023-05-24T04:48:35;96558.78;;;11.04;100.00
56807;BME280;42687;42.524;12.052;2023-05-24T04:51:01;96569.28;;;11.18;100.00
56807;BME280;42687;42.524;12.052;2023-05-24T04:53:27;96579.31;;;11.26;100.00
56807;BME280;42687;42.524;12.052;2023-05-24T04:55:52;96577.88;;;11.35;100.00
56807;BME280;42687;42.524;12.052;2023-05-24T04:58:18;96580.44;;;11.49;100.00
56807;BME280;42687;42.524;12.052;2023-05-24T05:00:44;96586.06;;;11.58;100.00
56807;BME280;42687;42.524;12.052;2023-05-24T05:03:10;96581.44;;;11.61;100.00
56807;BME280;42687;42.524;12.052;2023-05-24T05:05:36;96572.66;;;11.75;100.00
56807;BME280;42687;42.524;12.052;2023-05-24T05:08:02;96580.97;;;11.96;100.00
56807;BME280;42687;42.524;12.052;2023-05-24T05:10:28;96567.88;;;12.08;100.00
56807;BME280;42687;42.524;12.052;2023-05-24T05:12:54;96581.94;;;12.21;100.00
56807;BME280;42687;42.524;12.052;2023-05-24T05:15:22;96572.22;;;12.34;100.00
56807;BME280;42687;42.524;12.052;2023-05-24T05:17:48;96501.16;;;12.07;99.55
56807;BME280;42687;42.524;12.052;2023-05-24T05:20:14;96585.22;;;12.76;98.22
56807;BME280;42687;42.524;12.052;2023-05-24T05:22:47;96578.66;;;12.95;97.02
56807;BME280;42687;42.524;12.052;2023-05-24T05:25:13;96579.69;;;13.05;96.62
56807;BME280;42687;42.524;12.052;2023-05-24T05:27:39;96579.75;;;13.16;96.16
56807;BME280;42687;42.524;12.052;2023-05-24T05:30:05;96528.91;;;13.01;94.89
56807;BME280;42687;42.524;12.052;2023-05-24T05:32:31;96574.09;;;13.47;94.64
56807;BME280;42687;42.524;12.052;2023-05-24T05:34:56;96587.97;;;13.62;94.05
56807;BME280;42687;42.524;12.052;2023-05-24T05:37:22;96580.22;;;13.72;94.11
56807;BME280;42687;42.524;12.052;2023-05-24T05:39:48;96590.81;;;13.83;93.82
56807;BME280;42687;42.524;12.052;2023-05-24T05:42:13;96595.44;;;13.92;93.89
56807;BME280;42687;42.524;12.052;2023-05-24T05:44:39;96584.16;;;14.01;94.03
56807;BME280;42687;42.524;12.052;2023-05-24T05:47:05;96595.78;;;14.23;93.54
56807;BME280;42687;42.524;12.052;2023-05-24T05:49:31;96598.81;;;14.41;93.14
56807;BME280;42687;42.524;12.052;2023-05-24T05:52:04;96599.38;;;14.69;92.60
56807;BME280;42687;42.524;12.052;2023-05-24T05:54:30;96607.75;;;15.54;90.55
56807;BME280;42687;42.524;12.052;2023-05-24T05:56:56;96593.47;;;16.42;89.76
56807;BME280;42687;42.524;12.052;2023-05-24T05:59:22;96563.16;;;16.97;89.40
56807;BME280;42687;42.524;12.052;2023-05-24T06:01:48;96564.75;;;17.70;90.54
56807;BME280;42687;42.524;12.052;2023-05-24T06:04:15;96593.41;;;18.64;91.38
56807;BME280;42687;42.524;12.052;2023-05-24T06:06:40;96601.44;;;19.39;92.42
56807;BME280;42687;42.524;12.052;2023-05-24T06:09:06;96597.44;;;19.99;92.65
56807;BME280;42687;42.524;12.052;2023-05-24T06:11:32;96590.84;;;20.47;93.15
56807;BME280;42687;42.524;12.052;2023-05-24T06:13:58;96590.19;;;20.98;92.67
56807;BME280;42687;42.524;12.052;2023-05-24T06:16:24;96600.25;;;21.39;92.42
56807;BME280;42687;42.524;12.052;2023-05-24T06:18:50;96599.69;;;21.61;92.06
56807;BME280;42687;42.524;12.052;2023-05-24T06:21:16;96598.06;;;21.85;90.92
56807;BME280;42687;42.524;12.052;2023-05-24T06:23:42;96612.50;;;22.25;89.76
56807;BME280;42687;42.524;12.052;2023-05-24T06:26:08;96596.00;;;22.55;88.07
56807;BME280;42687;42.524;12.052;2023-05-24T06:28:38;96595.63;;;22.82;86.43
56807;BME280;42687;42.524;12.052;2023-05-24T06:31:04;96609.28;;;23.12;85.34
56807;BME280;42687;42.524;12.052;2023-05-24T06:33:30;96592.69;;;23.25;83.25
56807;BME280;42687;42.524;12.052;2023-05-24T06:35:57;96606.47;;;23.54;81.58
56807;BME280;42687;42.524;12.052;2023-05-24T06:38:23;96597.69;;;23.68;80.12
56807;BME280;42687;42.524;12.052;2023-05-24T06:40:49;96591.72;;;23.89;78.91
56807;BME280;42687;42.524;12.052;2023-05-24T06:43:15;96604.69;;;24.32;76.22
56807;BME280;42687;42.524;12.052;2023-05-24T06:45:42;96594.00;;;24.47;74.25
56807;BME280;42687;42.524;12.052;2023-05-24T06:48:07;96603.81;;;24.63;73.65
56807;BME280;42687;42.524;12.052;2023-05-24T06:50:33;96595.66;;;24.71;72.67
56807;BME280;42687;42.524;12.052;2023-05-24T06:53:00;96603.28;;;24.83;73.01
56807;BME280;42687;42.524;12.052;2023-05-24T06:55:27;96591.50;;;24.84;72.60
56807;BME280;42687;42.524;12.052;2023-05-24T06:57:53;96594.47;;;25.04;71.98
56807;BME280;42687;42.524;12.052;2023-05-24T07:00:19;96596.34;;;25.33;71.28
56807;BME280;42687;42.524;12.052;2023-05-24T07:02:46;96556.28;;;25.38;70.32
56807;BME280;42687;42.524;12.052;2023-05-24T07:05:12;96608.75;;;25.79;70.35
56807;BME280;42687;42.524;12.052;2023-05-24T07:07:38;96584.03;;;25.39;70.21
56807;BME280;42687;42.524;12.052;2023-05-24T07:10:09;96612.47;;;25.33;71.26
56807;BME280;42687;42.524;12.052;2023-05-24T07:12:36;96603.13;;;25.29;71.65
56807;BME280;42687;42.524;12.052;2023-05-24T07:15:03;96609.81;;;25.63;71.37
56807;BME280;42687;42.524;12.052;2023-05-24T07:17:29;96607.19;;;25.70;70.94
56807;BME280;42687;42.524;12.052;2023-05-24T07:19:55;96600.78;;;25.71;71.10
56807;BME280;42687;42.524;12.052;2023-05-24T07:22:21;96600.34;;;25.67;70.54
56807;BME280;42687;42.524;12.052;2023-05-24T07:24:49;96604.72;;;25.53;71.30
56807;BME280;42687;42.524;12.052;2023-05-24T07:27:15;96612.03;;;25.59;71.56
56807;BME280;42687;42.524;12.052;2023-05-24T07:29:41;96595.88;;;25.74;71.29
56807;BME280;42687;42.524;12.052;2023-05-24T07:32:07;96613.34;;;26.00;70.67
56807;BME280;42687;42.524;12.052;2023-05-24T07:34:33;96603.50;;;26.07;70.25
56807;BME280;42687;42.524;12.052;2023-05-24T07:37:00;96607.59;;;26.03;70.33
56807;BME280;42687;42.524;12.052;2023-05-24T07:39:26;96598.84;;;26.01;70.55
56807;BME280;42687;42.524;12.052;2023-05-24T07:41:53;96591.47;;;25.88;71.18
56807;BME280;42687;42.524;12.052;2023-05-24T07:44:19;96602.22;;;25.88;71.48
56807;BME280;42687;42.524;12.052;2023-05-24T07:46:45;96607.50;;;26.11;70.54
56807;BME280;42687;42.524;12.052;2023-05-24T07:49:11;96596.59;;;26.41;70.21
56807;BME280;42687;42.524;12.052;2023-05-24T07:51:37;96582.44;;;26.61;69.28
56807;BME280;42687;42.524;12.052;2023-05-24T07:54:04;96596.56;;;26.85;68.92
56807;BME280;42687;42.524;12.052;2023-05-24T07:56:30;96596.06;;;26.74;68.74
56807;BME280;42687;42.524;12.052;2023-05-24T07:58:56;96603.63;;;26.64;69.81
56807;BME280;42687;42.524;12.052;2023-05-24T08:01:30;96598.22;;;26.64;69.69
56807;BME280;42687;42.524;12.052;2023-05-24T08:03:57;96595.66;;;26.77;69.32
56807;BME280;42687;42.524;12.052;2023-05-24T08:06:22;96598.03;;;26.87;69.60
56807;BME280;42687;42.524;12.052;2023-05-24T08:08:48;96597.13;;;27.08;69.02
56807;BME280;42687;42.524;12.052;2023-05-24T08:11:14;96595.72;;;27.12;68.61
56807;BME280;42687;42.524;12.052;2023-05-24T08:13:40;96596.50;;;27.06;68.67
56807;BME280;42687;42.524;12.052;2023-05-24T08:16:06;96596.25;;;27.01;68.25
56807;BME280;42687;42.524;12.052;2023-05-24T08:18:31;96594.31;;;26.95;68.40
56807;BME280;42687;42.524;12.052;2023-05-24T08:20:57;96601.19;;;26.97;68.02
56807;BME280;42687;42.524;12.052;2023-05-24T08:23:23;96543.66;;;26.62;68.69
56807;BME280;42687;42.524;12.052;2023-05-24T08:25:49;96609.03;;;27.21;67.65
56807;BME280;42687;42.524;12.052;2023-05-24T08:28:15;96603.81;;;27.48;66.93
56807;BME280;42687;42.524;12.052;2023-05-24T08:30:41;96615.59;;;27.40;67.03
56807;BME280;42687;42.524;12.052;2023-05-24T08:33:07;96611.50;;;27.16;67.19
56807;BME280;42687;42.524;12.052;2023-05-24T08:35:33;96601.34;;;27.18;67.30
56807;BME280;42687;42.524;12.052;2023-05-24T08:38:00;96610.47;;;27.17;67.19
56807;BME280;42687;42.524;12.052;2023-05-24T08:40:26;96600.97;;;27.27;67.45
56807;BME280;42687;42.524;12.052;2023-05-24T08:42:52;96612.34;;;27.51;66.70
56807;BME280;42687;42.524;12.052;2023-05-24T08:45:20;96609.72;;;27.65;66.51
56807;BME280;42687;42.524;12.052;2023-05-24T08:47:49;96601.13;;;27.48;66.18
56807;BME280;42687;42.524;12.052;2023-05-24T08:50:16;96614.28;;;27.29;66.49
56807;BME280;42687;42.524;12.052;2023-05-24T08:52:44;96608.78;;;27.16;67.28
56807;BME280;42687;42.524;12.052;2023-05-24T08:55:11;96611.00;;;27.34;67.00
56807;BME280;42687;42.524;12.052;2023-05-24T08:57:37;96610.22;;;27.40;66.56
56807;BME280;42687;42.524;12.052;2023-05-24T09:00:10;96605.94;;;27.52;66.20
56807;BME280;42687;42.524;12.052;2023-05-24T09:02:41;96612.22;;;27.66;65.57
56807;BME280;42687;42.524;12.052;2023-05-24T09:05:10;96614.91;;;27.66;65.83
56807;BME280;42687;42.524;12.052;2023-05-24T09:07:36;96619.91;;;27.69;65.93
56807;BME280;42687;42.524;12.052;2023-05-24T09:10:06;96609.66;;;27.51;65.98
56807;BME280;42687;42.524;12.052;2023-05-24T09:12:33;96614.84;;;27.53;66.19
56807;BME280;42687;42.524;12.052;2023-05-24T09:15:01;96625.47;;;27.61;66.39
56807;BME280;42687;42.524;12.052;2023-05-24T09:17:29;96613.41;;;27.57;66.52
56807;BME280;42687;42.524;12.052;2023-05-24T09:19:56;96614.59;;;27.89;65.97
56807;BME280;42687;42.524;12.052;2023-05-24T09:22:26;96603.59;;;27.98;65.51
56807;BME280;42687;42.524;12.052;2023-05-24T09:24:57;96597.28;;;27.77;65.80
56807;BME280;42687;42.524;12.052;2023-05-24T09:27:24;96563.13;;;27.56;65.93
56807;BME280;42687;42.524;12.052;2023-05-24T09:29:49;96611.09;;;28.02;65.47
56807;BME280;42687;42.524;12.052;2023-05-24T09:32:19;96603.19;;;28.01;65.21
56807;BME280;42687;42.524;12.052;2023-05-24T09:34:52;96594.91;;;28.02;65.37
56807;BME280;42687;42.524;12.052;2023-05-24T09:37:21;96600.31;;;28.09;65.50
56807;BME280;42687;42.524;12.052;2023-05-24T09:39:48;96566.97;;;27.75;65.39
56807;BME280;42687;42.524;12.052;2023-05-24T09:42:22;96611.22;;;27.80;65.97
56807;BME280;42687;42.524;12.052;2023-05-24T09:45:06;96608.31;;;27.82;65.59
56807;BME280;42687;42.524;12.052;2023-05-24T09:47:36;96610.44;;;27.93;65.35
56807;BME280;42687;42.524;12.052;2023-05-24T09:50:04;96609.59;;;27.93;65.81
56807;BME280;42687;42.524;12.052;2023-05-24T09:52:35;96606.06;;;27.92;65.65
56807;BME280;42687;42.524;12.052;2023-05-24T09:57:37;96548.50;;;27.37;65.83
56807;BME280;42687;42.524;12.052;2023-05-24T10:00:06;96595.44;;;27.77;65.53
56807;BME280;42687;42.524;12.052;2023-05-24T10:02:39;96600.75;;;28.12;65.52
56807;BME280;42687;42.524;12.052;2023-05-24T10:05:05;96586.53;;;27.90;65.26
56807;BME280;42687;42.524;12.052;2023-05-24T10:07:33;96591.91;;;27.90;65.59
56807;BME280;42687;42.524;12.052;2023-05-24T10:10:00;96596.59;;;28.23;65.24
56807;BME280;42687;42.524;12.052;2023-05-24T10:12:26;96599.53;;;28.49;64.66
56807;BME280;42687;42.524;12.052;2023-05-24T10:14:53;96593.75;;;28.52;64.26
56807;BME280;42687;42.524;12.052;2023-05-24T10:17:22;96559.41;;;28.45;63.88
56807;BME280;42687;42.524;12.052;2023-05-24T10:19:52;96592.09;;;28.71;63.61
56807;BME280;42687;42.524;12.052;2023-05-24T10:22:19;96592.09;;;28.77;63.81
56807;BME280;42687;42.524;12.052;2023-05-24T10:24:49;96578.56;;;28.64;64.23
56807;BME280;42687;42.524;12.052;2023-05-24T10:27:22;96572.94;;;28.59;64.08
56807;BME280;42687;42.524;12.052;2023-05-24T10:32:33;96577.53;;;28.65;63.83
56807;BME280;42687;42.524;12.052;2023-05-24T10:35:03;96569.22;;;28.73;63.78
56807;BME280;42687;42.524;12.052;2023-05-24T10:37:32;96583.34;;;29.02;63.78
56807;BME280;42687;42.524;12.052;2023-05-24T10:39:59;96567.25;;;29.34;62.80
56807;BME280;42687;42.524;12.052;2023-05-24T10:42:26;96573.19;;;29.63;62.58
56807;BME280;42687;42.524;12.052;2023-05-24T10:44:55;96564.59;;;29.73;62.39
56807;BME280;42687;42.524;12.052;2023-05-24T10:47:27;96553.84;;;29.53;62.90
56807;BME280;42687;42.524;12.052;2023-05-24T10:49:55;96512.69;;;29.24;63.08
56807;BME280;42687;42.524;12.052;2023-05-24T10:52:34;96549.59;;;29.70;62.10
56807;BME280;42687;42.524;12.052;2023-05-24T10:55:01;96550.88;;;29.02;63.87
56807;BME280;42687;42.524;12.052;2023-05-24T10:57:30;96557.78;;;28.85;64.07
56807;BME280;42687;42.524;12.052;2023-05-24T11:03:08;96542.69;;;26.98;67.40
56807;BME280;42687;42.524;12.052;2023-05-24T11:08:30;96562.31;;;26.13;68.20
56807;BME280;42687;42.524;12.052;2023-05-24T11:11:11;96544.03;;;26.59;66.72
56807;BME280;42687;42.524;12.052;2023-05-24T11:13:41;96549.38;;;27.09;65.04
56807;BME280;42687;42.524;12.052;2023-05-24T11:16:14;96548.38;;;27.10;65.32
56807;BME280;42687;42.524;12.052;2023-05-24T11:18:56;96551.25;;;27.43;64.14
56807;BME280;42687;42.524;12.052;2023-05-24T11:21:22;96547.22;;;27.88;63.31
56807;BME280;42687;42.524;12.052;2023-05-24T11:23:48;96532.16;;;28.34;62.15
56807;BME280;42687;42.524;12.052;2023-05-24T11:26:17;96534.84;;;28.87;60.94
56807;BME280;42687;42.524;12.052;2023-05-24T11:28:47;96534.16;;;29.19;60.86
56807;BME280;42687;42.524;12.052;2023-05-24T11:31:14;96530.59;;;29.32;60.55
56807;BME280;42687;42.524;12.052;2023-05-24T11:33:41;96530.25;;;29.60;59.64
56807;BME280;42687;42.524;12.052;2023-05-24T11:36:07;96533.34;;;29.70;59.41
56807;BME280;42687;42.524;12.052;2023-05-24T11:38:35;96522.72;;;29.69;59.17
56807;BME280;42687;42.524;12.052;2023-05-24T11:41:13;96520.47;;;29.66;59.20
56807;BME280;42687;42.524;12.052;2023-05-24T11:43:40;96511.34;;;29.53;59.21
56807;BME280;42687;42.524;12.052;2023-05-24T11:46:06;96516.72;;;29.60;59.40
56807;BME280;42687;42.524;12.052;2023-05-24T11:48:34;96516.66;;;29.15;60.30
56807;BME280;42687;42.524;12.052;2023-05-24T11:51:03;96512.81;;;28.70;61.07
56807;BME280;42687;42.524;12.052;2023-05-24T11:53:30;96501.16;;;28.29;62.11
56807;BME280;42687;42.524;12.052;2023-05-24T11:56:03;96510.31;;;28.49;62.01
56807;BME280;42687;42.524;12.052;2023-05-24T11:58:41;96503.44;;;28.46;61.92
56807;BME280;42687;42.524;12.052;2023-05-24T12:01:28;96508.41;;;28.02;62.95
56807;BME280;42687;42.524;12.052;2023-05-24T12:03:54;96513.50;;;27.63;63.55
56807;BME280;42687;42.524;12.052;2023-05-24T12:06:22;96509.34;;;27.12;64.51
56807;BME280;42687;42.524;12.052;2023-05-24T12:08:50;96499.50;;;26.70;65.00
56807;BME280;42687;42.524;12.052;2023-05-24T12:11:16;96500.78;;;27.02;64.95
56807;BME280;42687;42.524;12.052;2023-05-24T12:13:44;96498.94;;;27.51;63.76
56807;BME280;42687;42.524;12.052;2023-05-24T12:16:11;96501.63;;;27.44;63.97
56807;BME280;42687;42.524;12.052;2023-05-24T12:18:39;96485.97;;;26.85;64.77
56807;BME280;42687;42.524;12.052;2023-05-24T12:21:09;96496.28;;;26.74;64.91
56807;BME280;42687;42.524;12.052;2023-05-24T12:23:36;96490.56;;;26.97;64.60
56807;BME280;42687;42.524;12.052;2023-05-24T12:26:04;96497.63;;;26.99;64.28
56807;BME280;42687;42.524;12.052;2023-05-24T12:28:36;96485.16;;;26.91;64.52
56807;BME280;42687;42.524;12.052;2023-05-24T12:31:04;96489.47;;;27.20;64.17
56807;BME280;42687;42.524;12.052;2023-05-24T12:33:32;96491.66;;;27.03;64.77
56807;BME280;42687;42.524;12.052;2023-05-24T12:35:57;96510.63;;;26.53;65.46
56807;BME280;42687;42.524;12.052;2023-05-24T12:38:24;96452.09;;;25.75;65.97
56807;BME280;42687;42.524;12.052;2023-05-24T12:40:53;96490.03;;;25.37;67.17
56807;BME280;42687;42.524;12.052;2023-05-24T12:43:19;96493.31;;;25.03;67.36
56807;BME280;42687;42.524;12.052;2023-05-24T12:45:45;96480.88;;;24.72;67.46
56807;BME280;42687;42.524;12.052;2023-05-24T12:48:12;96483.53;;;24.42;68.20
56807;BME280;42687;42.524;12.052;2023-05-24T12:50:38;96479.16;;;24.26;68.49
56807;BME280;42687;42.524;12.052;2023-05-24T12:53:04;96470.09;;;24.04;68.32
56807;BME280;42687;42.524;12.052;2023-05-24T12:55:30;96476.94;;;23.83;68.36
56807;BME280;42687;42.524;12.052;2023-05-24T12:57:56;96466.97;;;23.69;68.20
56807;BME280;42687;42.524;12.052;2023-05-24T13:00:25;96460.13;;;23.43;68.37
56807;BME280;42687;42.524;12.052;2023-05-24T13:02:52;96467.91;;;23.29;68.41
56807;BME280;42687;42.524;12.052;2023-05-24T13:05:21;96469.34;;;23.17;68.20
56807;BME280;42687;42.524;12.052;2023-05-24T13:07:49;96416.03;;;22.74;68.12
56807;BME280;42687;42.524;12.052;2023-05-24T13:10:15;96435.19;;;23.03;68.14
56807;BME280;42687;42.524;12.052;2023-05-24T13:12:41;96473.94;;;23.31;67.83
56807;BME280;42687;42.524;12.052;2023-05-24T13:15:08;96464.53;;;23.36;67.28
56807;BME280;42687;42.524;12.052;2023-05-24T13:17:34;96454.22;;;23.71;66.83